Terminal Aerodrome Forecast
Issued by NWS Charleston, WV

Current Version | Previous Version | Text Only | Print | Product List | Glossary Off
Versions: 1 2 3 4 5 6 7 8 9 10 11 12 13 14 15 16 17 18 19 20 21 22 23 24 25

000
FTUS41 KRLX 252331
TAFHTS
TAF
KHTS 252331Z 2600/2624 VRB04KT P6SM SCT250
     FM260700 00000KT 5SM BR FEW110
     FM261000 00000KT 2SM BR SCT001
     FM261200 00000KT 5SM BR SCT020
     FM261300 VRB04KT P6SM SCT050
     FM261800 23005KT P6SM BKN035=

USA.gov is the U.S. government's official web portal to all federal, state and local government web resources and services.